createdAt,value
2023-03-23T15:59:42.746Z,4.95
2023-03-23T16:01:45.309Z,4.43
2023-03-23T16:03:52.008Z,4.97
2023-03-23T16:05:56.050Z,4.50
2023-03-23T16:07:58.863Z,3.90
2023-03-23T16:10:03.650Z,4.10
2023-03-23T16:12:06.039Z,4.22
2023-03-23T16:14:08.798Z,3.60
2023-03-23T16:16:18.145Z,4.00
2023-03-23T16:18:22.641Z,3.87
2023-03-23T16:20:25.583Z,5.12
2023-03-23T16:22:28.360Z,4.62
2023-03-23T16:24:30.769Z,5.95
2023-03-23T16:26:33.121Z,3.85
2023-03-23T16:28:35.867Z,4.43
2023-03-23T16:30:39.208Z,3.25
2023-03-23T16:34:43.849Z,3.45
2023-03-23T16:36:46.296Z,4.62
2023-03-23T16:38:51.514Z,9.75
2023-03-23T16:40:55.853Z,7.80
2023-03-23T16:42:58.399Z,4.07
2023-03-23T16:45:01.095Z,4.87
2023-03-23T16:47:03.993Z,3.58
2023-03-23T16:49:06.357Z,4.55
2023-03-23T16:51:09.254Z,4.45
2023-03-23T16:53:12.041Z,3.95
2023-03-23T16:55:16.723Z,4.43
2023-03-23T16:57:19.690Z,4.30
2023-03-23T16:59:22.391Z,8.70
2023-03-23T17:01:24.769Z,12.02
2023-03-23T17:03:27.421Z,10.07
2023-03-23T17:05:30.888Z,6.20
2023-03-23T17:07:33.629Z,5.43
2023-03-23T17:09:36.076Z,6.18
2023-03-23T17:11:38.742Z,4.60
2023-03-23T17:13:42.163Z,8.98
2023-03-23T17:15:47.245Z,9.82
2023-03-23T17:17:50.655Z,7.03
2023-03-23T17:19:53.358Z,6.37
2023-03-23T17:21:57.279Z,5.20
2023-03-23T17:24:00.126Z,4.70
2023-03-23T17:26:02.695Z,6.35
2023-03-23T17:28:06.989Z,6.47
2023-03-23T17:30:14.239Z,8.38
2023-03-23T17:32:16.916Z,6.55
2023-03-23T17:34:19.941Z,4.47
2023-03-23T17:36:22.695Z,5.05
2023-03-23T17:38:25.893Z,5.40
2023-03-23T17:40:28.876Z,4.57
2023-03-23T17:42:32.322Z,7.80
2023-03-23T17:44:35.518Z,6.07
2023-03-23T17:46:38.505Z,13.70
2023-03-23T17:48:41.925Z,7.30
2023-03-23T17:50:49.183Z,5.22
2023-03-23T17:52:51.900Z,5.00
2023-03-23T17:54:54.794Z,5.50
2023-03-23T17:56:59.209Z,4.43
2023-03-23T17:59:02.351Z,5.60
2023-03-23T18:01:05.833Z,5.40
2023-03-23T18:03:10.397Z,4.82
2023-03-23T18:05:13.516Z,5.22
2023-03-23T18:07:16.493Z,5.22
2023-03-23T18:09:20.120Z,4.60
2023-03-23T18:11:24.083Z,5.32
2023-03-23T18:13:31.265Z,7.18
2023-03-23T18:15:37.320Z,6.28
2023-03-23T18:17:42.101Z,5.85
2023-03-23T18:19:48.666Z,5.82
2023-03-23T18:21:52.991Z,5.85
2023-03-23T18:23:59.841Z,5.40
2023-03-23T18:26:07.901Z,15.40
2023-03-23T18:28:11.117Z,6.22
2023-03-23T18:30:14.802Z,8.20
2023-03-23T18:32:20.148Z,6.12
2023-03-23T18:34:24.954Z,7.00
2023-03-23T18:36:28.768Z,6.97
2023-03-23T18:38:33.779Z,6.97
2023-03-23T18:40:42.707Z,6.55
2023-03-23T18:42:46.072Z,6.78
2023-03-23T18:44:49.799Z,6.18
2023-03-23T18:46:54.014Z,5.65
2023-03-23T18:48:57.256Z,6.82
2023-03-23T18:51:01.554Z,5.50
2023-03-23T18:53:04.655Z,6.47
2023-03-23T18:55:08.587Z,6.22
2023-03-23T18:57:18.891Z,7.07
2023-03-23T18:59:24.587Z,5.70
2023-03-23T19:01:28.850Z,6.70
2023-03-23T19:03:32.987Z,6.68
2023-03-23T19:05:39.195Z,7.53
2023-03-23T19:07:46.487Z,7.87
2023-03-23T19:09:52.044Z,8.48
2023-03-23T19:12:07.066Z,8.18
2023-03-23T19:14:10.990Z,7.70
2023-03-23T19:16:14.869Z,7.47
2023-03-23T19:18:18.654Z,7.78
2023-03-23T19:20:45.515Z,7.53
2023-03-23T19:22:46.468Z,8.90
2023-03-23T19:24:50.976Z,9.23
2023-03-23T19:26:56.244Z,8.50
2023-03-23T19:31:07.784Z,8.35
2023-03-23T19:33:12.259Z,9.20
2023-03-23T19:35:16.674Z,8.77
2023-03-23T19:37:22.146Z,8.48
2023-03-23T19:39:27.770Z,8.73
2023-03-23T19:41:32.782Z,11.43
2023-03-23T19:43:37.782Z,11.40
2023-03-23T19:45:42.488Z,9.02
2023-03-23T19:47:46.816Z,10.43
2023-03-23T19:49:51.631Z,8.77
2023-03-23T19:52:07.912Z,9.45
2023-03-23T19:54:15.974Z,9.38
2023-03-23T19:56:26.310Z,10.63
2023-03-23T19:58:34.610Z,11.43
2023-03-23T20:00:38.867Z,11.85
2023-03-23T20:02:43.959Z,10.43
2023-03-23T20:04:49.805Z,15.85
2023-03-23T20:06:56.322Z,11.80
2023-03-23T20:09:01.508Z,8.93
2023-03-23T20:11:10.173Z,8.20
2023-03-23T20:13:14.181Z,9.50
2023-03-23T20:15:18.875Z,8.82
2023-03-23T20:17:22.891Z,7.75
2023-03-23T20:19:28.640Z,8.32
2023-03-23T20:21:33.064Z,8.43
2023-03-23T20:23:39.653Z,8.43
2023-03-23T20:25:43.675Z,7.57
2023-03-23T20:27:48.978Z,8.52
2023-03-23T20:29:54.162Z,8.23
2023-03-23T20:31:59.278Z,9.00
2023-03-23T20:34:08.619Z,9.07
2023-03-23T20:36:13.718Z,10.90
2023-03-23T20:38:19.078Z,9.40
2023-03-23T20:40:22.960Z,9.52
2023-03-23T20:42:26.295Z,11.35
2023-03-23T20:44:31.953Z,10.68
2023-03-23T20:46:36.929Z,10.73
2023-03-23T20:48:40.755Z,9.18
2023-03-23T20:50:47.175Z,8.98
2023-03-23T20:52:50.837Z,8.57
2023-03-23T20:54:56.606Z,9.70
2023-03-23T20:57:00.412Z,9.77
2023-03-23T20:59:06.402Z,9.32
2023-03-23T21:01:20.211Z,9.55
2023-03-23T21:03:27.460Z,9.13
2023-03-23T21:05:31.923Z,6.90
2023-03-23T21:07:36.550Z,8.38
2023-03-23T21:09:40.698Z,8.40
2023-03-23T21:11:44.065Z,8.00
2023-03-23T21:13:48.720Z,9.10
2023-03-23T21:15:53.068Z,9.32
2023-03-23T21:17:57.296Z,8.00
2023-03-23T21:19:59.918Z,10.80
2023-03-23T21:22:03.061Z,8.40
2023-03-23T21:24:06.361Z,8.15
2023-03-23T21:26:12.090Z,7.55
2023-03-23T21:28:15.369Z,8.88
2023-03-23T21:30:19.754Z,8.15
2023-03-23T21:32:22.204Z,8.05
2023-03-23T21:34:26.441Z,7.75
2023-03-23T21:36:30.082Z,8.32
2023-03-23T21:38:32.740Z,10.02
2023-03-23T21:40:35.101Z,8.57
2023-03-23T21:42:37.958Z,11.95
2023-03-23T21:44:43.084Z,10.43
2023-03-23T21:46:45.800Z,9.00
2023-03-23T21:48:52.881Z,8.85
2023-03-23T21:50:55.587Z,9.18
2023-03-23T21:52:57.882Z,8.15
2023-03-23T21:55:02.637Z,10.15
2023-03-23T21:57:05.274Z,10.48
2023-03-23T21:59:07.891Z,9.27
2023-03-23T22:01:11.299Z,9.88
2023-03-23T22:03:20.838Z,9.15
2023-03-23T22:05:23.422Z,9.23
2023-03-23T22:07:26.000Z,9.18
2023-03-23T22:09:28.960Z,9.55
2023-03-23T22:11:32.674Z,7.97
2023-03-23T22:13:38.953Z,9.45
2023-03-23T22:15:41.618Z,9.38
2023-03-23T22:17:44.129Z,9.60
2023-03-23T22:19:48.461Z,9.38
2023-03-23T22:21:51.193Z,8.50
2023-03-23T22:23:58.588Z,8.77
2023-03-23T22:26:01.135Z,10.35
2023-03-23T22:28:05.426Z,9.90
2023-03-23T22:30:08.202Z,7.75
2023-03-23T22:32:10.824Z,8.27
2023-03-23T22:34:13.629Z,8.02
2023-03-23T22:36:17.641Z,9.02
2023-03-23T22:38:20.518Z,7.85
2023-03-23T22:40:26.297Z,9.00
2023-03-23T22:42:28.613Z,7.85
2023-03-23T22:44:31.051Z,7.60
2023-03-23T22:46:33.948Z,7.70
2023-03-23T22:48:36.488Z,7.70
2023-03-23T22:50:38.804Z,7.60
2023-03-23T22:52:41.490Z,7.87
2023-03-23T22:54:43.820Z,7.40
2023-03-23T22:56:46.622Z,9.80
2023-03-23T22:58:49.402Z,8.85
2023-03-23T23:00:57.640Z,10.52
2023-03-23T23:03:00.015Z,8.57
2023-03-23T23:05:02.723Z,8.02
2023-03-23T23:07:12.848Z,7.80
2023-03-23T23:09:15.698Z,7.65
2023-03-23T23:11:20.659Z,7.70
2023-03-23T23:13:24.463Z,7.97
2023-03-23T23:15:27.723Z,7.80
2023-03-23T23:17:32.176Z,8.15
2023-03-23T23:19:34.591Z,8.35
2023-03-23T23:21:37.047Z,8.35
2023-03-23T23:23:39.864Z,7.85
2023-03-23T23:25:42.476Z,7.87
2023-03-23T23:27:46.013Z,8.55
2023-03-23T23:29:48.948Z,7.95
2023-03-23T23:31:51.397Z,8.40
2023-03-23T23:33:56.399Z,8.60
2023-03-23T23:35:59.516Z,8.45
2023-03-23T23:38:02.145Z,8.20
2023-03-23T23:40:09.372Z,7.82
2023-03-23T23:42:12.232Z,8.38
2023-03-23T23:44:14.658Z,8.50
2023-03-23T23:46:17.133Z,9.35
